sensor_id;sensor_type;location;lat;lon;timestamp;P1;durP1;ratioP1;P2;durP2;ratioP2
10882;SDS011;5494;51.796;10.952;2024-02-14T00:00:09;2.73;;;1.43;;
10882;SDS011;5494;51.796;10.952;2024-02-14T00:02:43;2.30;;;1.40;;
10882;SDS011;5494;51.796;10.952;2024-02-14T00:05:15;3.20;;;1.80;;
10882;SDS011;5494;51.796;10.952;2024-02-14T00:07:44;3.27;;;1.87;;
10882;SDS011;5494;51.796;10.952;2024-02-14T00:10:12;2.63;;;1.70;;
10882;SDS011;5494;51.796;10.952;2024-02-14T00:12:40;2.17;;;1.63;;
10882;SDS011;5494;51.796;10.952;2024-02-14T00:15:08;4.50;;;1.70;;
10882;SDS011;5494;51.796;10.952;2024-02-14T00:17:37;3.00;;;1.70;;
10882;SDS011;5494;51.796;10.952;2024-02-14T00:20:07;3.17;;;2.07;;
10882;SDS011;5494;51.796;10.952;2024-02-14T00:22:38;2.47;;;1.67;;
10882;SDS011;5494;51.796;10.952;2024-02-14T00:25:07;3.47;;;1.90;;
10882;SDS011;5494;51.796;10.952;2024-02-14T00:27:35;2.13;;;1.70;;
10882;SDS011;5494;51.796;10.952;2024-02-14T00:30:04;2.20;;;1.87;;
10882;SDS011;5494;51.796;10.952;2024-02-14T00:32:33;5.90;;;1.80;;
10882;SDS011;5494;51.796;10.952;2024-02-14T00:35:00;3.77;;;2.23;;
10882;SDS011;5494;51.796;10.952;2024-02-14T00:37:30;3.40;;;2.17;;
10882;SDS011;5494;51.796;10.952;2024-02-14T00:39:59;4.03;;;1.80;;
10882;SDS011;5494;51.796;10.952;2024-02-14T00:42:28;3.67;;;2.20;;
10882;SDS011;5494;51.796;10.952;2024-02-14T00:44:56;5.73;;;1.87;;
10882;SDS011;5494;51.796;10.952;2024-02-14T00:47:25;3.40;;;1.67;;
10882;SDS011;5494;51.796;10.952;2024-02-14T00:49:56;3.93;;;1.87;;
10882;SDS011;5494;51.796;10.952;2024-02-14T00:52:24;4.60;;;2.00;;
10882;SDS011;5494;51.796;10.952;2024-02-14T00:54:54;9.07;;;1.83;;
10882;SDS011;5494;51.796;10.952;2024-02-14T00:57:22;3.00;;;1.60;;
10882;SDS011;5494;51.796;10.952;2024-02-14T00:59:54;4.30;;;1.70;;
10882;SDS011;5494;51.796;10.952;2024-02-14T01:02:23;3.93;;;1.70;;
10882;SDS011;5494;51.796;10.952;2024-02-14T01:04:52;3.70;;;1.80;;
10882;SDS011;5494;51.796;10.952;2024-02-14T01:07:21;4.00;;;1.83;;
10882;SDS011;5494;51.796;10.952;2024-02-14T01:09:49;2.10;;;1.50;;
10882;SDS011;5494;51.796;10.952;2024-02-14T01:12:18;3.20;;;1.83;;
10882;SDS011;5494;51.796;10.952;2024-02-14T01:14:46;2.27;;;1.50;;
10882;SDS011;5494;51.796;10.952;2024-02-14T01:17:14;3.90;;;1.60;;
10882;SDS011;5494;51.796;10.952;2024-02-14T01:19:42;4.87;;;1.93;;
10882;SDS011;5494;51.796;10.952;2024-02-14T01:22:11;2.90;;;1.97;;
10882;SDS011;5494;51.796;10.952;2024-02-14T01:24:42;2.03;;;1.57;;
10882;SDS011;5494;51.796;10.952;2024-02-14T01:27:11;3.27;;;2.10;;
10882;SDS011;5494;51.796;10.952;2024-02-14T01:29:40;2.53;;;1.90;;
10882;SDS011;5494;51.796;10.952;2024-02-14T01:32:08;2.53;;;1.80;;
10882;SDS011;5494;51.796;10.952;2024-02-14T01:34:36;3.00;;;1.70;;
10882;SDS011;5494;51.796;10.952;2024-02-14T01:37:04;3.80;;;2.07;;
10882;SDS011;5494;51.796;10.952;2024-02-14T01:39:32;3.90;;;2.23;;
10882;SDS011;5494;51.796;10.952;2024-02-14T01:42:00;4.93;;;2.00;;
10882;SDS011;5494;51.796;10.952;2024-02-14T01:44:33;3.23;;;1.90;;
10882;SDS011;5494;51.796;10.952;2024-02-14T01:47:04;3.90;;;2.37;;
10882;SDS011;5494;51.796;10.952;2024-02-14T01:49:33;4.20;;;2.50;;
10882;SDS011;5494;51.796;10.952;2024-02-14T01:52:02;4.23;;;2.20;;
10882;SDS011;5494;51.796;10.952;2024-02-14T01:54:32;3.57;;;2.47;;
10882;SDS011;5494;51.796;10.952;2024-02-14T01:57:02;7.10;;;2.97;;
10882;SDS011;5494;51.796;10.952;2024-02-14T01:59:33;8.60;;;2.30;;
10882;SDS011;5494;51.796;10.952;2024-02-14T02:02:03;7.33;;;2.97;;
10882;SDS011;5494;51.796;10.952;2024-02-14T02:04:34;5.07;;;2.90;;
10882;SDS011;5494;51.796;10.952;2024-02-14T02:07:03;4.27;;;2.20;;
10882;SDS011;5494;51.796;10.952;2024-02-14T02:09:31;4.53;;;2.50;;
10882;SDS011;5494;51.796;10.952;2024-02-14T02:12:00;6.03;;;2.43;;
10882;SDS011;5494;51.796;10.952;2024-02-14T02:14:28;4.43;;;2.30;;
10882;SDS011;5494;51.796;10.952;2024-02-14T02:16:56;5.63;;;2.20;;
10882;SDS011;5494;51.796;10.952;2024-02-14T02:19:25;4.27;;;2.40;;
10882;SDS011;5494;51.796;10.952;2024-02-14T02:21:54;4.10;;;2.03;;
10882;SDS011;5494;51.796;10.952;2024-02-14T02:24:23;6.40;;;2.60;;
10882;SDS011;5494;51.796;10.952;2024-02-14T02:26:51;4.53;;;2.30;;
10882;SDS011;5494;51.796;10.952;2024-02-14T02:29:20;4.23;;;2.30;;
10882;SDS011;5494;51.796;10.952;2024-02-14T02:31:48;5.10;;;2.50;;
10882;SDS011;5494;51.796;10.952;2024-02-14T02:34:16;3.87;;;2.07;;
10882;SDS011;5494;51.796;10.952;2024-02-14T02:36:44;3.07;;;2.10;;
10882;SDS011;5494;51.796;10.952;2024-02-14T02:39:12;3.47;;;2.13;;
10882;SDS011;5494;51.796;10.952;2024-02-14T02:41:42;3.03;;;1.90;;
10882;SDS011;5494;51.796;10.952;2024-02-14T02:44:15;3.13;;;2.33;;
10882;SDS011;5494;51.796;10.952;2024-02-14T02:46:43;4.87;;;2.13;;
10882;SDS011;5494;51.796;10.952;2024-02-14T02:49:12;2.87;;;1.87;;
10882;SDS011;5494;51.796;10.952;2024-02-14T02:51:40;4.20;;;1.83;;
10882;SDS011;5494;51.796;10.952;2024-02-14T02:54:08;3.10;;;1.90;;
10882;SDS011;5494;51.796;10.952;2024-02-14T02:56:37;4.27;;;2.00;;
10882;SDS011;5494;51.796;10.952;2024-02-14T02:59:08;3.23;;;2.20;;
10882;SDS011;5494;51.796;10.952;2024-02-14T03:01:36;3.17;;;2.20;;
10882;SDS011;5494;51.796;10.952;2024-02-14T03:04:06;4.07;;;1.43;;
10882;SDS011;5494;51.796;10.952;2024-02-14T03:06:34;4.53;;;2.27;;
10882;SDS011;5494;51.796;10.952;2024-02-14T03:09:03;3.87;;;1.93;;
10882;SDS011;5494;51.796;10.952;2024-02-14T03:11:34;3.20;;;1.80;;
10882;SDS011;5494;51.796;10.952;2024-02-14T03:14:03;3.63;;;1.80;;
10882;SDS011;5494;51.796;10.952;2024-02-14T03:16:33;2.90;;;1.73;;
10882;SDS011;5494;51.796;10.952;2024-02-14T03:19:03;3.20;;;1.83;;
10882;SDS011;5494;51.796;10.952;2024-02-14T03:21:32;2.50;;;1.80;;
10882;SDS011;5494;51.796;10.952;2024-02-14T03:24:01;5.33;;;1.73;;
10882;SDS011;5494;51.796;10.952;2024-02-14T03:26:31;3.00;;;2.10;;
10882;SDS011;5494;51.796;10.952;2024-02-14T03:29:00;2.10;;;1.67;;
10882;SDS011;5494;51.796;10.952;2024-02-14T03:31:28;3.13;;;1.43;;
10882;SDS011;5494;51.796;10.952;2024-02-14T03:33:58;3.90;;;1.50;;
10882;SDS011;5494;51.796;10.952;2024-02-14T03:36:26;2.57;;;1.57;;
10882;SDS011;5494;51.796;10.952;2024-02-14T03:38:56;3.23;;;1.87;;
10882;SDS011;5494;51.796;10.952;2024-02-14T03:41:24;2.00;;;1.60;;
10882;SDS011;5494;51.796;10.952;2024-02-14T03:43:54;2.03;;;1.40;;
10882;SDS011;5494;51.796;10.952;2024-02-14T03:46:24;2.97;;;1.57;;
10882;SDS011;5494;51.796;10.952;2024-02-14T03:48:53;4.70;;;1.50;;
10882;SDS011;5494;51.796;10.952;2024-02-14T03:51:23;2.70;;;1.50;;
10882;SDS011;5494;51.796;10.952;2024-02-14T03:53:51;4.20;;;2.10;;
10882;SDS011;5494;51.796;10.952;2024-02-14T03:56:19;3.97;;;1.50;;
10882;SDS011;5494;51.796;10.952;2024-02-14T03:58:47;2.53;;;1.53;;
10882;SDS011;5494;51.796;10.952;2024-02-14T04:01:15;3.03;;;1.50;;
10882;SDS011;5494;51.796;10.952;2024-02-14T04:03:43;2.43;;;1.50;;
10882;SDS011;5494;51.796;10.952;2024-02-14T04:06:14;3.80;;;1.40;;
10882;SDS011;5494;51.796;10.952;2024-02-14T04:08:44;2.77;;;1.67;;
10882;SDS011;5494;51.796;10.952;2024-02-14T04:11:12;3.23;;;1.83;;
10882;SDS011;5494;51.796;10.952;2024-02-14T04:13:40;1.77;;;1.40;;
10882;SDS011;5494;51.796;10.952;2024-02-14T04:16:09;2.97;;;1.37;;
10882;SDS011;5494;51.796;10.952;2024-02-14T04:18:37;2.13;;;1.43;;
10882;SDS011;5494;51.796;10.952;2024-02-14T04:21:07;2.07;;;1.43;;
10882;SDS011;5494;51.796;10.952;2024-02-14T04:23:35;5.03;;;1.70;;
10882;SDS011;5494;51.796;10.952;2024-02-14T04:26:05;2.43;;;1.73;;
10882;SDS011;5494;51.796;10.952;2024-02-14T04:28:32;3.70;;;1.40;;
10882;SDS011;5494;51.796;10.952;2024-02-14T04:31:00;1.97;;;1.67;;
10882;SDS011;5494;51.796;10.952;2024-02-14T04:33:28;3.53;;;1.50;;
10882;SDS011;5494;51.796;10.952;2024-02-14T04:35:57;2.17;;;1.30;;
10882;SDS011;5494;51.796;10.952;2024-02-14T04:38:25;2.37;;;1.33;;
10882;SDS011;5494;51.796;10.952;2024-02-14T04:40:55;3.73;;;1.43;;
10882;SDS011;5494;51.796;10.952;2024-02-14T04:43:26;3.60;;;1.30;;
10882;SDS011;5494;51.796;10.952;2024-02-14T04:45:54;3.10;;;1.23;;
10882;SDS011;5494;51.796;10.952;2024-02-14T04:48:22;2.20;;;1.30;;
10882;SDS011;5494;51.796;10.952;2024-02-14T04:50:51;1.83;;;1.30;;
10882;SDS011;5494;51.796;10.952;2024-02-14T04:53:19;4.00;;;1.37;;
10882;SDS011;5494;51.796;10.952;2024-02-14T04:55:47;4.80;;;1.47;;
10882;SDS011;5494;51.796;10.952;2024-02-14T04:58:15;1.70;;;1.30;;
10882;SDS011;5494;51.796;10.952;2024-02-14T05:00:44;3.23;;;1.60;;
10882;SDS011;5494;51.796;10.952;2024-02-14T05:03:13;1.90;;;1.30;;
10882;SDS011;5494;51.796;10.952;2024-02-14T05:05:42;3.33;;;1.30;;
10882;SDS011;5494;51.796;10.952;2024-02-14T05:08:10;5.20;;;1.30;;
10882;SDS011;5494;51.796;10.952;2024-02-14T05:10:38;2.33;;;1.50;;
10882;SDS011;5494;51.796;10.952;2024-02-14T05:13:06;2.47;;;1.60;;
10882;SDS011;5494;51.796;10.952;2024-02-14T05:15:34;1.53;;;1.30;;
10882;SDS011;5494;51.796;10.952;2024-02-14T05:18:04;2.23;;;1.40;;
10882;SDS011;5494;51.796;10.952;2024-02-14T05:20:33;2.10;;;1.20;;
10882;SDS011;5494;51.796;10.952;2024-02-14T05:23:01;2.63;;;1.10;;
10882;SDS011;5494;51.796;10.952;2024-02-14T05:25:29;3.67;;;1.40;;
10882;SDS011;5494;51.796;10.952;2024-02-14T05:27:59;3.83;;;1.30;;
10882;SDS011;5494;51.796;10.952;2024-02-14T05:30:27;1.47;;;1.10;;
10882;SDS011;5494;51.796;10.952;2024-02-14T05:32:55;5.73;;;1.53;;
10882;SDS011;5494;51.796;10.952;2024-02-14T05:35:25;2.80;;;1.40;;
10882;SDS011;5494;51.796;10.952;2024-02-14T05:37:53;3.87;;;1.17;;
10882;SDS011;5494;51.796;10.952;2024-02-14T05:40:22;3.17;;;1.27;;
10882;SDS011;5494;51.796;10.952;2024-02-14T05:42:50;4.40;;;1.30;;
10882;SDS011;5494;51.796;10.952;2024-02-14T05:45:18;1.97;;;1.30;;
10882;SDS011;5494;51.796;10.952;2024-02-14T05:47:46;2.03;;;1.10;;
10882;SDS011;5494;51.796;10.952;2024-02-14T05:50:15;1.60;;;1.40;;
10882;SDS011;5494;51.796;10.952;2024-02-14T05:52:45;4.80;;;1.70;;
10882;SDS011;5494;51.796;10.952;2024-02-14T05:55:13;4.47;;;1.40;;
10882;SDS011;5494;51.796;10.952;2024-02-14T05:57:41;3.10;;;1.10;;
10882;SDS011;5494;51.796;10.952;2024-02-14T06:00:09;2.40;;;1.53;;
10882;SDS011;5494;51.796;10.952;2024-02-14T06:02:39;6.07;;;1.50;;
10882;SDS011;5494;51.796;10.952;2024-02-14T06:05:07;3.50;;;1.20;;
10882;SDS011;5494;51.796;10.952;2024-02-14T06:07:37;2.97;;;1.50;;
10882;SDS011;5494;51.796;10.952;2024-02-14T06:10:06;4.03;;;1.70;;
10882;SDS011;5494;51.796;10.952;2024-02-14T06:12:36;6.27;;;1.63;;
10882;SDS011;5494;51.796;10.952;2024-02-14T06:15:05;2.70;;;1.40;;
10882;SDS011;5494;51.796;10.952;2024-02-14T06:17:34;2.83;;;1.40;;
10882;SDS011;5494;51.796;10.952;2024-02-14T06:20:04;2.57;;;1.40;;
10882;SDS011;5494;51.796;10.952;2024-02-14T06:22:34;3.67;;;1.53;;
10882;SDS011;5494;51.796;10.952;2024-02-14T06:25:14;2.97;;;1.40;;
10882;SDS011;5494;51.796;10.952;2024-02-14T06:27:43;5.70;;;1.50;;
10882;SDS011;5494;51.796;10.952;2024-02-14T06:30:11;2.50;;;1.57;;
10882;SDS011;5494;51.796;10.952;2024-02-14T06:32:40;3.47;;;1.70;;
10882;SDS011;5494;51.796;10.952;2024-02-14T06:35:08;3.27;;;1.57;;
10882;SDS011;5494;51.796;10.952;2024-02-14T06:37:37;3.17;;;1.40;;
10882;SDS011;5494;51.796;10.952;2024-02-14T06:40:19;3.33;;;1.10;;
10882;SDS011;5494;51.796;10.952;2024-02-14T06:42:47;2.83;;;1.60;;
10882;SDS011;5494;51.796;10.952;2024-02-14T06:45:17;3.20;;;1.53;;
10882;SDS011;5494;51.796;10.952;2024-02-14T06:47:46;2.80;;;1.40;;
10882;SDS011;5494;51.796;10.952;2024-02-14T06:50:14;2.60;;;1.40;;
10882;SDS011;5494;51.796;10.952;2024-02-14T06:52:42;3.00;;;1.40;;
10882;SDS011;5494;51.796;10.952;2024-02-14T06:55:10;3.13;;;1.83;;
10882;SDS011;5494;51.796;10.952;2024-02-14T06:57:39;2.30;;;1.93;;
10882;SDS011;5494;51.796;10.952;2024-02-14T07:00:08;3.17;;;1.83;;
10882;SDS011;5494;51.796;10.952;2024-02-14T07:02:37;3.53;;;1.47;;
10882;SDS011;5494;51.796;10.952;2024-02-14T07:05:06;3.67;;;1.70;;
10882;SDS011;5494;51.796;10.952;2024-02-14T07:07:38;1.87;;;1.67;;
10882;SDS011;5494;51.796;10.952;2024-02-14T07:10:08;3.27;;;1.90;;
10882;SDS011;5494;51.796;10.952;2024-02-14T07:12:36;2.27;;;1.40;;
10882;SDS011;5494;51.796;10.952;2024-02-14T07:15:06;3.47;;;1.67;;
10882;SDS011;5494;51.796;10.952;2024-02-14T07:17:34;3.90;;;2.60;;
10882;SDS011;5494;51.796;10.952;2024-02-14T07:20:03;5.07;;;1.97;;
10882;SDS011;5494;51.796;10.952;2024-02-14T07:22:35;3.47;;;2.00;;
10882;SDS011;5494;51.796;10.952;2024-02-14T07:25:06;5.97;;;1.53;;
10882;SDS011;5494;51.796;10.952;2024-02-14T07:27:36;2.87;;;1.70;;
10882;SDS011;5494;51.796;10.952;2024-02-14T07:30:05;3.10;;;1.63;;
10882;SDS011;5494;51.796;10.952;2024-02-14T07:32:36;3.80;;;1.60;;
10882;SDS011;5494;51.796;10.952;2024-02-14T07:35:05;4.20;;;1.67;;
10882;SDS011;5494;51.796;10.952;2024-02-14T07:37:34;4.13;;;1.73;;
10882;SDS011;5494;51.796;10.952;2024-02-14T07:40:02;3.60;;;1.53;;
10882;SDS011;5494;51.796;10.952;2024-02-14T07:42:32;3.63;;;1.87;;
10882;SDS011;5494;51.796;10.952;2024-02-14T07:45:00;4.63;;;1.83;;
10882;SDS011;5494;51.796;10.952;2024-02-14T07:47:31;3.67;;;1.77;;
10882;SDS011;5494;51.796;10.952;2024-02-14T07:49:59;3.40;;;1.93;;
10882;SDS011;5494;51.796;10.952;2024-02-14T07:52:28;3.30;;;2.00;;
10882;SDS011;5494;51.796;10.952;2024-02-14T07:55:00;2.50;;;1.80;;
10882;SDS011;5494;51.796;10.952;2024-02-14T07:57:28;4.30;;;1.80;;
10882;SDS011;5494;51.796;10.952;2024-02-14T07:59:56;5.20;;;1.90;;
10882;SDS011;5494;51.796;10.952;2024-02-14T08:02:24;3.77;;;1.80;;
10882;SDS011;5494;51.796;10.952;2024-02-14T08:04:55;2.40;;;1.67;;
10882;SDS011;5494;51.796;10.952;2024-02-14T08:07:23;2.13;;;1.50;;
10882;SDS011;5494;51.796;10.952;2024-02-14T08:09:51;3.13;;;1.60;;
10882;SDS011;5494;51.796;10.952;2024-02-14T08:12:20;4.20;;;1.90;;
10882;SDS011;5494;51.796;10.952;2024-02-14T08:14:48;4.13;;;1.53;;
10882;SDS011;5494;51.796;10.952;2024-02-14T08:17:16;5.03;;;1.77;;
10882;SDS011;5494;51.796;10.952;2024-02-14T08:19:44;2.20;;;1.63;;
10882;SDS011;5494;51.796;10.952;2024-02-14T08:22:14;2.83;;;1.80;;
10882;SDS011;5494;51.796;10.952;2024-02-14T08:24:42;3.10;;;1.90;;
10882;SDS011;5494;51.796;10.952;2024-02-14T08:27:10;4.57;;;2.10;;
10882;SDS011;5494;51.796;10.952;2024-02-14T08:29:38;2.37;;;1.60;;
10882;SDS011;5494;51.796;10.952;2024-02-14T08:32:09;6.67;;;2.40;;
10882;SDS011;5494;51.796;10.952;2024-02-14T08:34:37;3.10;;;2.03;;
10882;SDS011;5494;51.796;10.952;2024-02-14T08:37:05;3.37;;;1.87;;
10882;SDS011;5494;51.796;10.952;2024-02-14T08:39:35;3.20;;;2.10;;
10882;SDS011;5494;51.796;10.952;2024-02-14T08:42:03;3.40;;;2.23;;
10882;SDS011;5494;51.796;10.952;2024-02-14T08:44:34;3.47;;;1.67;;
10882;SDS011;5494;51.796;10.952;2024-02-14T08:47:03;2.77;;;1.50;;
10882;SDS011;5494;51.796;10.952;2024-02-14T08:49:31;5.57;;;1.93;;
10882;SDS011;5494;51.796;10.952;2024-02-14T08:52:00;2.50;;;1.37;;
10882;SDS011;5494;51.796;10.952;2024-02-14T08:54:28;2.13;;;1.80;;
10882;SDS011;5494;51.796;10.952;2024-02-14T08:56:57;2.03;;;1.60;;
10882;SDS011;5494;51.796;10.952;2024-02-14T08:59:26;2.50;;;1.50;;
10882;SDS011;5494;51.796;10.952;2024-02-14T09:01:54;1.80;;;1.20;;
10882;SDS011;5494;51.796;10.952;2024-02-14T09:04:22;2.67;;;1.43;;
10882;SDS011;5494;51.796;10.952;2024-02-14T09:06:50;2.50;;;1.40;;
10882;SDS011;5494;51.796;10.952;2024-02-14T09:09:18;1.50;;;1.33;;
10882;SDS011;5494;51.796;10.952;2024-02-14T09:11:46;1.47;;;1.37;;
10882;SDS011;5494;51.796;10.952;2024-02-14T09:14:15;1.87;;;1.40;;
10882;SDS011;5494;51.796;10.952;2024-02-14T09:16:43;2.90;;;1.57;;
10882;SDS011;5494;51.796;10.952;2024-02-14T09:19:12;2.57;;;1.60;;
10882;SDS011;5494;51.796;10.952;2024-02-14T09:21:40;2.07;;;1.40;;
10882;SDS011;5494;51.796;10.952;2024-02-14T09:24:08;3.17;;;1.50;;
10882;SDS011;5494;51.796;10.952;2024-02-14T09:26:36;2.50;;;1.33;;
10882;SDS011;5494;51.796;10.952;2024-02-14T09:29:05;1.90;;;1.70;;
10882;SDS011;5494;51.796;10.952;2024-02-14T09:31:34;2.60;;;1.53;;
10882;SDS011;5494;51.796;10.952;2024-02-14T09:34:02;3.60;;;1.93;;
10882;SDS011;5494;51.796;10.952;2024-02-14T09:36:30;4.27;;;1.90;;
10882;SDS011;5494;51.796;10.952;2024-02-14T09:38:58;2.30;;;1.50;;
10882;SDS011;5494;51.796;10.952;2024-02-14T09:41:29;2.40;;;1.50;;
10882;SDS011;5494;51.796;10.952;2024-02-14T09:44:06;2.67;;;1.70;;
10882;SDS011;5494;51.796;10.952;2024-02-14T09:46:36;1.77;;;1.30;;
10882;SDS011;5494;51.796;10.952;2024-02-14T09:49:05;3.10;;;1.63;;
10882;SDS011;5494;51.796;10.952;2024-02-14T09:51:35;1.67;;;1.50;;
10882;SDS011;5494;51.796;10.952;2024-02-14T09:54:06;1.77;;;1.43;;
10882;SDS011;5494;51.796;10.952;2024-02-14T09:56:37;1.93;;;1.57;;
10882;SDS011;5494;51.796;10.952;2024-02-14T09:59:05;3.63;;;1.40;;
10882;SDS011;5494;51.796;10.952;2024-02-14T10:01:37;2.50;;;1.40;;
10882;SDS011;5494;51.796;10.952;2024-02-14T10:04:05;2.17;;;1.40;;
10882;SDS011;5494;51.796;10.952;2024-02-14T10:06:33;3.33;;;1.43;;
10882;SDS011;5494;51.796;10.952;2024-02-14T10:09:02;1.60;;;1.50;;
10882;SDS011;5494;51.796;10.952;2024-02-14T10:11:30;4.67;;;1.60;;
10882;SDS011;5494;51.796;10.952;2024-02-14T10:13:59;2.00;;;1.40;;
10882;SDS011;5494;51.796;10.952;2024-02-14T10:16:29;4.93;;;1.67;;
10882;SDS011;5494;51.796;10.952;2024-02-14T10:18:59;2.10;;;1.63;;
10882;SDS011;5494;51.796;10.952;2024-02-14T10:21:27;1.67;;;1.30;;
10882;SDS011;5494;51.796;10.952;2024-02-14T10:23:58;2.77;;;1.33;;
10882;SDS011;5494;51.796;10.952;2024-02-14T10:26:27;2.37;;;1.70;;
10882;SDS011;5494;51.796;10.952;2024-02-14T10:28:56;2.53;;;1.70;;
10882;SDS011;5494;51.796;10.952;2024-02-14T10:31:25;2.73;;;1.63;;
10882;SDS011;5494;51.796;10.952;2024-02-14T10:33:54;3.20;;;1.73;;
10882;SDS011;5494;51.796;10.952;2024-02-14T10:36:25;2.00;;;1.67;;
10882;SDS011;5494;51.796;10.952;2024-02-14T10:38:53;2.20;;;1.53;;
10882;SDS011;5494;51.796;10.952;2024-02-14T10:41:24;3.07;;;1.63;;
10882;SDS011;5494;51.796;10.952;2024-02-14T10:43:52;2.57;;;1.60;;
10882;SDS011;5494;51.796;10.952;2024-02-14T10:46:20;2.63;;;1.57;;
10882;SDS011;5494;51.796;10.952;2024-02-14T10:48:58;2.17;;;1.67;;
10882;SDS011;5494;51.796;10.952;2024-02-14T10:51:33;2.47;;;1.70;;
10882;SDS011;5494;51.796;10.952;2024-02-14T10:54:03;2.20;;;1.53;;
10882;SDS011;5494;51.796;10.952;2024-02-14T10:56:38;2.63;;;1.70;;
10882;SDS011;5494;51.796;10.952;2024-02-14T10:59:09;3.77;;;1.67;;
10882;SDS011;5494;51.796;10.952;2024-02-14T11:01:44;2.27;;;1.67;;
10882;SDS011;5494;51.796;10.952;2024-02-14T11:04:13;2.67;;;1.60;;
10882;SDS011;5494;51.796;10.952;2024-02-14T11:06:45;2.37;;;1.67;;
10882;SDS011;5494;51.796;10.952;2024-02-14T11:09:14;2.93;;;1.90;;
10882;SDS011;5494;51.796;10.952;2024-02-14T11:11:43;3.13;;;2.00;;
10882;SDS011;5494;51.796;10.952;2024-02-14T11:14:14;3.67;;;1.67;;
10882;SDS011;5494;51.796;10.952;2024-02-14T11:16:44;2.17;;;1.50;;
10882;SDS011;5494;51.796;10.952;2024-02-14T11:19:13;3.90;;;1.60;;
10882;SDS011;5494;51.796;10.952;2024-02-14T11:21:43;2.57;;;1.60;;
10882;SDS011;5494;51.796;10.952;2024-02-14T11:24:15;2.40;;;1.80;;
10882;SDS011;5494;51.796;10.952;2024-02-14T11:26:47;3.80;;;2.03;;
10882;SDS011;5494;51.796;10.952;2024-02-14T11:29:18;2.20;;;1.77;;
10882;SDS011;5494;51.796;10.952;2024-02-14T11:31:57;3.30;;;2.10;;
10882;SDS011;5494;51.796;10.952;2024-02-14T11:34:26;1.73;;;1.50;;
10882;SDS011;5494;51.796;10.952;2024-02-14T11:36:56;3.33;;;2.10;;
10882;SDS011;5494;51.796;10.952;2024-02-14T11:39:26;2.20;;;1.90;;
10882;SDS011;5494;51.796;10.952;2024-02-14T11:41:56;1.80;;;1.70;;
10882;SDS011;5494;51.796;10.952;2024-02-14T11:44:25;2.20;;;1.47;;
10882;SDS011;5494;51.796;10.952;2024-02-14T11:46:54;2.70;;;1.90;;
10882;SDS011;5494;51.796;10.952;2024-02-14T11:49:22;2.37;;;1.50;;
10882;SDS011;5494;51.796;10.952;2024-02-14T11:51:51;3.73;;;1.70;;
10882;SDS011;5494;51.796;10.952;2024-02-14T11:54:21;2.00;;;1.27;;
10882;SDS011;5494;51.796;10.952;2024-02-14T11:56:50;1.60;;;1.50;;
10882;SDS011;5494;51.796;10.952;2024-02-14T11:59:18;2.80;;;1.37;;
10882;SDS011;5494;51.796;10.952;2024-02-14T12:01:49;3.30;;;1.80;;
10882;SDS011;5494;51.796;10.952;2024-02-14T12:04:18;1.47;;;1.30;;
10882;SDS011;5494;51.796;10.952;2024-02-14T12:06:46;2.73;;;1.57;;
10882;SDS011;5494;51.796;10.952;2024-02-14T12:09:15;1.97;;;1.60;;
10882;SDS011;5494;51.796;10.952;2024-02-14T12:11:46;1.73;;;1.37;;
10882;SDS011;5494;51.796;10.952;2024-02-14T12:14:14;2.03;;;1.53;;
10882;SDS011;5494;51.796;10.952;2024-02-14T12:16:45;5.17;;;1.73;;
10882;SDS011;5494;51.796;10.952;2024-02-14T12:19:13;2.20;;;1.37;;
10882;SDS011;5494;51.796;10.952;2024-02-14T12:21:43;3.97;;;2.03;;
10882;SDS011;5494;51.796;10.952;2024-02-14T12:24:13;3.73;;;1.40;;
10882;SDS011;5494;51.796;10.952;2024-02-14T12:26:42;1.87;;;1.10;;
10882;SDS011;5494;51.796;10.952;2024-02-14T12:29:14;4.13;;;1.50;;
10882;SDS011;5494;51.796;10.952;2024-02-14T12:31:44;1.50;;;1.27;;
10882;SDS011;5494;51.796;10.952;2024-02-14T12:34:13;1.33;;;1.00;;
10882;SDS011;5494;51.796;10.952;2024-02-14T12:36:41;1.20;;;0.93;;
10882;SDS011;5494;51.796;10.952;2024-02-14T12:39:09;1.57;;;1.13;;
10882;SDS011;5494;51.796;10.952;2024-02-14T12:41:39;1.27;;;1.00;;
10882;SDS011;5494;51.796;10.952;2024-02-14T12:44:08;5.63;;;1.30;;
10882;SDS011;5494;51.796;10.952;2024-02-14T12:46:36;1.60;;;1.00;;
10882;SDS011;5494;51.796;10.952;2024-02-14T12:49:05;4.20;;;1.00;;
10882;SDS011;5494;51.796;10.952;2024-02-14T12:51:35;1.60;;;1.10;;
10882;SDS011;5494;51.796;10.952;2024-02-14T12:54:05;1.60;;;0.73;;
10882;SDS011;5494;51.796;10.952;2024-02-14T12:56:33;0.90;;;0.80;;
10882;SDS011;5494;51.796;10.952;2024-02-14T12:59:02;1.10;;;0.63;;
10882;SDS011;5494;51.796;10.952;2024-02-14T13:01:31;1.50;;;0.80;;
10882;SDS011;5494;51.796;10.952;2024-02-14T13:03:59;1.70;;;0.80;;
10882;SDS011;5494;51.796;10.952;2024-02-14T13:06:28;1.20;;;0.90;;
10882;SDS011;5494;51.796;10.952;2024-02-14T13:08:57;1.20;;;0.90;;
10882;SDS011;5494;51.796;10.952;2024-02-14T13:11:26;0.80;;;0.70;;
10882;SDS011;5494;51.796;10.952;2024-02-14T13:13:54;0.93;;;0.77;;
10882;SDS011;5494;51.796;10.952;2024-02-14T13:16:22;2.30;;;0.90;;
10882;SDS011;5494;51.796;10.952;2024-02-14T13:18:51;1.23;;;0.90;;
10882;SDS011;5494;51.796;10.952;2024-02-14T13:21:20;1.30;;;1.10;;
10882;SDS011;5494;51.796;10.952;2024-02-14T13:23:48;1.30;;;1.10;;
10882;SDS011;5494;51.796;10.952;2024-02-14T13:26:16;1.87;;;1.00;;
10882;SDS011;5494;51.796;10.952;2024-02-14T13:28:44;4.00;;;1.20;;
10882;SDS011;5494;51.796;10.952;2024-02-14T13:31:12;1.43;;;1.30;;
10882;SDS011;5494;51.796;10.952;2024-02-14T13:33:40;2.77;;;1.50;;
10882;SDS011;5494;51.796;10.952;2024-02-14T13:36:10;1.80;;;1.50;;
10882;SDS011;5494;51.796;10.952;2024-02-14T13:38:38;3.87;;;1.57;;
10882;SDS011;5494;51.796;10.952;2024-02-14T13:41:06;2.73;;;2.07;;
10882;SDS011;5494;51.796;10.952;2024-02-14T13:43:34;3.37;;;1.60;;
10882;SDS011;5494;51.796;10.952;2024-02-14T13:46:03;6.87;;;2.17;;
10882;SDS011;5494;51.796;10.952;2024-02-14T13:48:32;4.37;;;2.00;;
10882;SDS011;5494;51.796;10.952;2024-02-14T13:51:00;3.27;;;2.10;;
10882;SDS011;5494;51.796;10.952;2024-02-14T13:53:31;4.10;;;2.00;;
10882;SDS011;5494;51.796;10.952;2024-02-14T13:55:59;3.07;;;1.57;;
10882;SDS011;5494;51.796;10.952;2024-02-14T13:58:27;3.87;;;1.57;;
10882;SDS011;5494;51.796;10.952;2024-02-14T14:00:55;2.10;;;1.30;;
10882;SDS011;5494;51.796;10.952;2024-02-14T14:03:25;4.43;;;1.93;;
10882;SDS011;5494;51.796;10.952;2024-02-14T14:05:53;1.63;;;1.53;;
10882;SDS011;5494;51.796;10.952;2024-02-14T14:08:23;2.77;;;1.60;;
10882;SDS011;5494;51.796;10.952;2024-02-14T14:10:52;2.70;;;1.40;;
10882;SDS011;5494;51.796;10.952;2024-02-14T14:13:20;3.00;;;1.40;;
10882;SDS011;5494;51.796;10.952;2024-02-14T14:15:48;2.37;;;1.40;;
10882;SDS011;5494;51.796;10.952;2024-02-14T14:18:19;1.80;;;1.10;;
10882;SDS011;5494;51.796;10.952;2024-02-14T14:20:47;3.10;;;1.20;;
10882;SDS011;5494;51.796;10.952;2024-02-14T14:23:15;2.73;;;1.00;;
10882;SDS011;5494;51.796;10.952;2024-02-14T14:25:43;2.60;;;1.60;;
10882;SDS011;5494;51.796;10.952;2024-02-14T14:28:13;1.00;;;0.90;;
10882;SDS011;5494;51.796;10.952;2024-02-14T14:30:41;2.87;;;1.10;;
10882;SDS011;5494;51.796;10.952;2024-02-14T14:33:09;1.17;;;0.90;;
10882;SDS011;5494;51.796;10.952;2024-02-14T14:35:43;2.17;;;1.30;;
10882;SDS011;5494;51.796;10.952;2024-02-14T14:38:12;1.83;;;1.50;;
10882;SDS011;5494;51.796;10.952;2024-02-14T14:40:41;2.77;;;1.27;;
10882;SDS011;5494;51.796;10.952;2024-02-14T14:43:13;1.67;;;0.80;;
10882;SDS011;5494;51.796;10.952;2024-02-14T14:45:45;1.40;;;0.90;;
10882;SDS011;5494;51.796;10.952;2024-02-14T14:48:15;3.47;;;1.00;;
10882;SDS011;5494;51.796;10.952;2024-02-14T14:50:44;1.67;;;0.87;;
10882;SDS011;5494;51.796;10.952;2024-02-14T14:53:12;4.13;;;0.90;;
10882;SDS011;5494;51.796;10.952;2024-02-14T14:55:49;1.00;;;0.73;;
10882;SDS011;5494;51.796;10.952;2024-02-14T14:58:20;1.20;;;1.00;;